This is the latest recevied weather packets stored in our database for station/object LU3MCV-13. If no packets are shown the sender has not sent any weather packets the latest 10 day(s).
| Time | Temp. | Humidity | Pressure | Rain* | Wind** | Luminosity | Snow |
|---|---|---|---|---|---|---|---|
| 1778078589 | 20° C | 25% | 925.6 hPa | - | - | - | - |
| 1778077690 | 20° C | 26% | 925.7 hPa | - | - | - | - |
| 1778076790 | 18.89° C | 28% | 925.8 hPa | - | - | - | - |
| 1778075890 | 18.89° C | 30% | 926.1 hPa | - | - | - | - |
| 1778074990 | 17.78° C | 31% | 926 hPa | - | - | - | - |
| 1778074090 | 17.78° C | 32% | 926 hPa | - | - | - | - |
| 1778073190 | 17.78° C | 32% | 926.3 hPa | - | - | - | - |
| 1778072289 | 17.22° C | 33% | 926 hPa | - | - | - | - |
| 1778071390 | 17.22° C | 34% | 926.3 hPa | - | - | - | - |
| 1778070489 | 16.11° C | 35% | 926.4 hPa | - | - | - | - |
| 1778069590 | 15° C | 35% | 926.5 hPa | - | - | - | - |
| 1778068689 | 13.89° C | 38% | 926.5 hPa | - | - | - | - |
| 1778067790 | 13.89° C | 39% | 926.5 hPa | - | - | - | - |
| 1778066890 | 13.89° C | 39% | 926.2 hPa | - | - | - | - |
| 1778065989 | 12.78° C | 39% | 926.2 hPa | - | - | - | - |
| 1778065090 | 13.89° C | 37% | 926.3 hPa | - | - | - | - |
| 1778064190 | 13.89° C | 37% | 926.1 hPa | - | - | - | - |
| 1778063290 | 13.89° C | 37% | 926.4 hPa | - | - | - | - |
| 1778062390 | 13.89° C | 37% | 926.4 hPa | - | - | - | - |
| 1778061490 | 13.89° C | 36% | 926.4 hPa | - | - | - | - |
| 1778060590 | 13.89° C | 35% | 926.3 hPa | - | - | - | - |
| 1778059689 | 13.89° C | 35% | 926.5 hPa | - | - | - | - |
| 1778058789 | 13.89° C | 34% | 926.4 hPa | - | - | - | - |
| 1778057889 | 13.89° C | 34% | 926.4 hPa | - | - | - | - |
| 1778056989 | 15° C | 33% | 926.6 hPa | - | - | - | - |
* Rain since midnight (hover to see other rain measurements)
** Current wind speed in m/s (hover to see current wind gust speed)